Time;durP1;ratioP1;P1;durP2;ratioP2;P2;SDS_P1;SDS_P2;PMS_P1;PMS_P2;Temp;Humidity;BMP_temperature;BMP_pressure;BME280_temperature;BME280_humidity;BME280_pressure;Samples;Min_cycle;Max_cycle;Signal;HPM_P1;HPM_P2
2023/06/16 00:01:38;;;;;;;3.13;3.00;;;23.60;42.40;;;;;;5041956;28;20283;-71
2023/06/16 00:04:04;;;;;;;3.40;3.07;;;23.60;42.40;;;;;;5040305;28;20218;-71
2023/06/16 00:06:30;;;;;;;3.27;3.07;;;23.60;42.40;;;;;;5040262;28;20921;-71
2023/06/16 00:08:58;;;;;;;2.90;2.80;;;23.60;42.40;;;;;;5035845;28;20839;-71
2023/06/16 00:11:27;;;;;;;2.70;2.50;;;23.60;42.40;;;;;;5038393;28;20443;-71
2023/06/16 00:13:53;;;;;;;3.20;3.00;;;23.60;42.40;;;;;;5038147;28;20463;-71
2023/06/16 00:16:19;;;;;;;3.23;3.03;;;23.60;42.40;;;;;;5040630;28;20459;-71
2023/06/16 00:18:51;;;;;;;3.10;2.90;;;23.60;42.40;;;;;;5035835;28;20573;-71
2023/06/16 00:21:25;;;;;;;2.83;2.73;;;23.60;42.40;;;;;;5035912;28;20531;-71
2023/06/16 00:23:51;;;;;;;3.30;3.10;;;23.60;42.40;;;;;;5038169;28;20447;-71
2023/06/16 00:26:17;;;;;;;2.67;2.47;;;23.60;42.40;;;;;;5037865;28;20474;-71
2023/06/16 00:28:43;;;;;;;2.37;2.27;;;23.60;42.40;;;;;;5037487;28;20458;-72
2023/06/16 00:31:08;;;;;;;2.63;2.53;;;23.60;42.40;;;;;;5036119;28;20222;-71
2023/06/16 00:33:34;;;;;;;3.00;2.80;;;23.60;42.40;;;;;;5039374;28;20217;-71
2023/06/16 00:35:59;;;;;;;2.90;2.80;;;23.60;42.40;;;;;;5040532;28;20747;-71
2023/06/16 00:38:25;;;;;;;2.73;2.63;;;23.60;42.40;;;;;;5035196;28;21161;-71
2023/06/16 00:40:51;;;;;;;3.00;2.80;;;23.60;42.40;;;;;;5039808;28;20229;-71
2023/06/16 00:43:16;;;;;;;3.03;2.87;;;23.60;42.40;;;;;;5039886;28;20248;-71
2023/06/16 00:45:42;;;;;;;2.80;2.60;;;23.50;42.30;;;;;;5038810;28;20211;-71
2023/06/16 00:48:07;;;;;;;2.73;2.63;;;23.50;42.30;;;;;;5040235;28;20273;-71
2023/06/16 00:50:33;;;;;;;5.30;3.30;;;23.60;42.40;;;;;;5041069;28;20756;-71
2023/06/16 00:52:59;;;;;;;2.83;2.73;;;23.50;42.30;;;;;;5034470;28;20214;-71
2023/06/16 00:55:25;;;;;;;2.63;2.43;;;23.60;42.40;;;;;;5038761;28;20309;-71
2023/06/16 00:57:52;;;;;;;2.90;2.70;;;23.60;42.40;;;;;;5039021;28;20970;-71
2023/06/16 01:00:19;;;;;;;2.90;2.70;;;23.60;42.40;;;;;;5039043;28;20470;-71
2023/06/16 01:02:45;;;;;;;3.00;2.80;;;23.50;42.30;;;;;;5033582;28;20444;-71
2023/06/16 01:05:12;;;;;;;2.60;2.50;;;23.60;42.40;;;;;;5041938;28;20520;-71
2023/06/16 01:08:02;;;;;;;3.27;3.07;;;23.60;42.40;;;;;;5038282;28;20218;-71
2023/06/16 01:10:37;;;;;;;2.80;2.70;;;23.50;42.30;;;;;;5033096;28;20470;-71
2023/06/16 01:13:07;;;;;;;3.00;2.80;;;23.50;42.30;;;;;;5034242;28;23152;-71
2023/06/16 01:15:35;;;;;;;2.63;2.53;;;23.50;42.30;;;;;;5039352;28;26829;-71
2023/06/16 01:18:01;;;;;;;2.87;2.77;;;23.50;42.30;;;;;;5037707;28;20447;-70
2023/06/16 01:20:48;;;;;;;3.27;3.10;;;23.50;42.30;;;;;;5030870;28;20509;-71
2023/06/16 01:23:16;;;;;;;2.73;2.63;;;23.50;42.30;;;;;;5038324;28;20443;-72
2023/06/16 01:25:44;;;;;;;2.93;2.73;;;23.50;42.30;;;;;;5040109;28;20534;-72
2023/06/16 01:28:12;;;;;;;3.07;2.97;;;23.50;42.30;;;;;;5040606;28;20455;-71
2023/06/16 01:30:42;;;;;;;2.60;2.50;;;23.50;42.30;;;;;;5038085;28;21021;-71
2023/06/16 01:33:09;;;;;;;3.07;2.93;;;23.50;42.30;;;;;;5035148;28;20450;-71
2023/06/16 01:35:35;;;;;;;3.10;2.90;;;23.50;42.30;;;;;;5039030;28;20452;-71
2023/06/16 01:38:01;;;;;;;3.00;2.90;;;23.50;42.30;;;;;;5038625;28;21016;-71
2023/06/16 01:40:28;;;;;;;3.03;2.90;;;23.50;42.30;;;;;;5031648;28;20222;-71
2023/06/16 01:42:56;;;;;;;2.70;2.50;;;23.50;42.30;;;;;;5039244;28;20491;-71
2023/06/16 01:45:22;;;;;;;3.30;3.10;;;23.50;42.30;;;;;;5040603;28;20459;-71
2023/06/16 01:47:48;;;;;;;2.67;2.53;;;23.50;42.30;;;;;;5038046;28;20779;-71
2023/06/16 01:50:14;;;;;;;2.90;2.80;;;23.50;42.30;;;;;;5037813;28;20454;-71
2023/06/16 01:52:40;;;;;;;3.30;3.10;;;23.50;42.30;;;;;;5037792;28;20214;-71
2023/06/16 01:55:06;;;;;;;3.10;3.00;;;23.50;42.30;;;;;;5036272;28;20295;-71
2023/06/16 01:57:33;;;;;;;3.43;3.23;;;23.50;42.30;;;;;;5039147;28;20315;-71
2023/06/16 02:00:23;;;;;;;3.50;3.30;;;23.50;42.30;;;;;;5038910;28;20463;-71
2023/06/16 02:03:11;;;;;;;3.10;2.90;;;23.50;42.30;;;;;;5038197;28;20552;-71
2023/06/16 02:05:41;;;;;;;2.90;2.70;;;23.50;42.30;;;;;;5037693;28;20463;-71
2023/06/16 02:08:07;;;;;;;3.07;2.97;;;23.50;42.30;;;;;;5036833;28;21044;-71
2023/06/16 02:10:34;;;;;;;4.33;3.07;;;23.50;42.30;;;;;;5030368;28;20510;-70
2023/06/16 02:12:59;;;;;;;3.17;2.97;;;23.50;42.30;;;;;;5034277;28;20451;-71
2023/06/16 02:15:27;;;;;;;3.83;3.50;;;23.50;42.30;;;;;;5035400;28;20451;-70
2023/06/16 02:17:57;;;;;;;3.13;3.03;;;23.50;42.30;;;;;;5036433;28;20588;-71
2023/06/16 02:20:24;;;;;;;5.20;2.50;;;23.50;42.30;;;;;;5037350;28;21029;-71
2023/06/16 02:22:50;;;;;;;3.13;2.93;;;23.50;42.30;;;;;;5035114;28;21093;-71
2023/06/16 02:25:15;;;;;;;3.13;2.83;;;23.50;42.30;;;;;;5039290;28;20922;-70
2023/06/16 02:27:41;;;;;;;2.97;2.77;;;23.50;42.30;;;;;;5041377;28;20304;-70
2023/06/16 02:30:08;;;;;;;2.70;2.60;;;23.50;42.30;;;;;;5038550;28;20249;-71
2023/06/16 02:32:34;;;;;;;3.07;2.80;;;23.50;42.30;;;;;;5038108;28;20225;-71
2023/06/16 02:35:00;;;;;;;3.07;2.87;;;23.50;42.30;;;;;;5035225;28;20465;-71
2023/06/16 02:37:27;;;;;;;2.87;2.67;;;23.50;42.30;;;;;;5042095;28;20873;-71
2023/06/16 02:39:53;;;;;;;3.07;2.87;;;23.50;42.30;;;;;;5036165;28;20796;-71
2023/06/16 02:42:18;;;;;;;3.03;2.83;;;23.50;42.30;;;;;;5041736;28;20536;-71
2023/06/16 02:44:44;;;;;;;4.50;3.00;;;23.50;42.30;;;;;;5041070;28;20538;-71
2023/06/16 02:47:09;;;;;;;3.00;2.90;;;23.50;43.00;;;;;;5043063;28;20228;-72
2023/06/16 02:49:35;;;;;;;2.43;2.30;;;23.50;42.30;;;;;;5040682;28;20723;-71
2023/06/16 02:52:01;;;;;;;3.23;2.80;;;23.50;42.30;;;;;;5043706;28;20225;-71
2023/06/16 02:54:26;;;;;;;2.83;2.63;;;23.50;42.30;;;;;;5041254;28;20269;-71
2023/06/16 02:56:52;;;;;;;3.03;2.90;;;23.50;42.30;;;;;;5042768;28;20217;-70
2023/06/16 02:59:17;;;;;;;2.70;2.60;;;23.40;42.20;;;;;;5039520;28;20236;-71
2023/06/16 03:01:43;;;;;;;3.23;3.03;;;23.50;42.30;;;;;;5037287;28;20766;-71
2023/06/16 03:04:09;;;;;;;2.83;2.73;;;23.50;42.30;;;;;;5041156;28;20272;-71
2023/06/16 03:06:35;;;;;;;3.07;2.93;;;23.50;42.30;;;;;;5044945;28;20584;-71
2023/06/16 03:09:05;;;;;;;3.17;2.97;;;23.40;42.10;;;;;;5040404;28;20439;-70
2023/06/16 03:11:31;;;;;;;3.20;3.00;;;23.40;42.20;;;;;;5041343;28;20317;-70
2023/06/16 03:13:57;;;;;;;3.13;2.93;;;23.40;42.20;;;;;;5039384;28;20458;-71
2023/06/16 03:16:26;;;;;;;3.33;3.13;;;23.40;42.20;;;;;;5041052;28;20949;-70
2023/06/16 03:18:52;;;;;;;2.60;2.50;;;23.40;42.20;;;;;;5037807;28;20443;-71
2023/06/16 03:21:18;;;;;;;3.13;2.93;;;23.40;42.20;;;;;;5041921;28;20459;-71
2023/06/16 03:23:44;;;;;;;3.07;2.87;;;23.40;42.20;;;;;;5037310;28;20229;-71
2023/06/16 03:26:10;;;;;;;2.90;2.80;;;23.40;42.20;;;;;;5039718;28;21747;-70
2023/06/16 03:28:36;;;;;;;2.70;2.50;;;23.50;42.30;;;;;;5035890;28;20249;-71
2023/06/16 03:31:01;;;;;;;3.17;3.00;;;23.40;42.20;;;;;;5041538;28;21001;-71
2023/06/16 03:33:27;;;;;;;2.63;2.53;;;23.40;42.20;;;;;;5040794;28;20320;-72
2023/06/16 03:35:53;;;;;;;3.30;3.10;;;23.40;42.20;;;;;;5046147;28;20218;-71
2023/06/16 03:38:20;;;;;;;3.10;3.00;;;23.40;42.10;;;;;;5022519;28;20269;-71
2023/06/16 03:40:46;;;;;;;3.17;2.97;;;23.40;42.10;;;;;;5041590;28;20239;-71
2023/06/16 03:43:11;;;;;;;3.20;2.93;;;23.40;42.20;;;;;;5039406;28;20451;-71
2023/06/16 03:45:37;;;;;;;3.13;2.93;;;23.40;42.10;;;;;;5041524;28;20221;-71
2023/06/16 03:48:02;;;;;;;3.20;3.00;;;23.40;42.10;;;;;;5041215;28;20233;-71
2023/06/16 03:50:28;;;;;;;3.30;3.10;;;23.40;42.10;;;;;;5040271;28;20229;-71
2023/06/16 03:52:53;;;;;;;3.23;3.03;;;23.40;42.10;;;;;;5041288;28;20226;-71
2023/06/16 03:55:19;;;;;;;3.73;3.43;;;23.40;42.00;;;;;;5043214;28;20712;-71
2023/06/16 03:57:45;;;;;;;4.20;3.40;;;23.40;42.00;;;;;;5037294;28;20260;-71
2023/06/16 04:00:11;;;;;;;3.10;2.90;;;23.40;41.80;;;;;;5033722;28;20272;-71
2023/06/16 04:02:36;;;;;;;3.20;3.00;;;23.40;41.80;;;;;;5037590;28;20237;-70
2023/06/16 04:05:03;;;;;;;3.07;2.87;;;23.40;41.70;;;;;;5041391;28;20455;-71
2023/06/16 04:07:30;;;;;;;3.20;3.00;;;23.40;41.70;;;;;;5044133;28;20222;-71
2023/06/16 04:09:55;;;;;;;3.77;3.57;;;23.40;41.50;;;;;;5036497;28;20966;-71
2023/06/16 04:12:21;;;;;;;3.60;3.40;;;23.40;41.30;;;;;;5033556;28;20454;-71
2023/06/16 04:14:47;;;;;;;3.77;2.80;;;23.40;41.10;;;;;;5030251;28;20226;-71
2023/06/16 04:17:12;;;;;;;4.03;3.83;;;23.40;40.80;;;;;;5035510;28;20554;-71
2023/06/16 04:19:38;;;;;;;2.97;2.77;;;23.40;40.60;;;;;;5034856;28;20689;-70
2023/06/16 04:22:03;;;;;;;3.57;3.37;;;23.50;40.40;;;;;;5038811;28;20240;-69
2023/06/16 04:24:29;;;;;;;3.37;3.17;;;23.50;40.20;;;;;;5037369;28;20717;-70
2023/06/16 04:26:58;;;;;;;4.17;3.60;;;23.50;40.10;;;;;;5041116;28;20218;-69
2023/06/16 04:29:25;;;;;;;3.87;3.57;;;23.50;39.90;;;;;;5032666;28;20524;-72
2023/06/16 04:31:51;;;;;;;4.73;4.00;;;23.50;39.80;;;;;;5043045;28;21033;-72
2023/06/16 04:34:18;;;;;;;3.70;3.40;;;23.50;39.70;;;;;;5032808;28;20466;-70
2023/06/16 04:36:44;;;;;;;3.37;3.13;;;23.50;39.70;;;;;;5041023;28;20566;-71
2023/06/16 04:39:11;;;;;;;3.07;2.87;;;23.50;39.70;;;;;;5031238;28;20514;-70
2023/06/16 04:41:37;;;;;;;3.17;2.97;;;23.50;39.70;;;;;;5040885;28;20826;-70
2023/06/16 04:44:03;;;;;;;3.20;3.00;;;23.50;39.80;;;;;;5040638;28;20470;-70
2023/06/16 04:46:29;;;;;;;4.10;3.20;;;23.50;39.90;;;;;;5038656;28;20218;-70
2023/06/16 04:48:54;;;;;;;3.60;3.30;;;23.50;39.80;;;;;;5039838;28;20233;-70
2023/06/16 04:51:20;;;;;;;3.50;3.20;;;23.50;39.90;;;;;;5043231;28;20444;-69
2023/06/16 04:53:47;;;;;;;3.20;3.00;;;23.50;40.00;;;;;;5039166;28;20285;-72
2023/06/16 04:56:13;;;;;;;3.20;3.00;;;23.50;40.00;;;;;;5038173;28;20221;-70
2023/06/16 04:58:39;;;;;;;3.37;3.17;;;23.50;40.10;;;;;;5038012;28;20470;-72
2023/06/16 05:01:04;;;;;;;4.93;3.27;;;23.50;40.10;;;;;;5039367;28;20463;-74
2023/06/16 05:03:30;;;;;;;3.10;2.87;;;23.50;40.10;;;;;;5039314;28;20232;-73
2023/06/16 05:05:55;;;;;;;3.67;3.20;;;23.50;40.10;;;;;;5038624;28;20758;-73
2023/06/16 05:08:22;;;;;;;2.80;2.60;;;23.50;40.20;;;;;;5034697;28;20232;-72
2023/06/16 05:10:47;;;;;;;3.83;3.47;;;23.50;40.20;;;;;;5037833;28;20257;-74
2023/06/16 05:13:13;;;;;;;3.73;3.03;;;23.50;40.20;;;;;;5037815;28;20466;-78
2023/06/16 05:15:38;;;;;;;3.53;3.30;;;23.50;40.20;;;;;;5041764;28;20232;-74
2023/06/16 05:18:04;;;;;;;6.27;3.50;;;23.50;40.20;;;;;;5039514;28;20697;-73
2023/06/16 05:20:31;;;;;;;3.43;3.20;;;23.50;40.10;;;;;;5032498;28;20283;-71
2023/06/16 05:22:57;;;;;;;4.30;2.80;;;23.50;40.10;;;;;;5033870;28;20217;-71
2023/06/16 05:25:23;;;;;;;3.10;2.90;;;23.50;40.10;;;;;;5037380;28;20447;-72
2023/06/16 05:27:48;;;;;;;4.30;3.20;;;23.50;40.10;;;;;;5040450;28;20215;-72
2023/06/16 05:30:14;;;;;;;4.50;3.27;;;23.50;40.20;;;;;;5039909;28;20217;-72
2023/06/16 05:32:40;;;;;;;2.93;2.73;;;23.50;40.10;;;;;;5042286;28;20863;-72
2023/06/16 05:35:06;;;;;;;3.27;3.07;;;23.50;40.20;;;;;;5041786;28;20226;-72
2023/06/16 05:37:32;;;;;;;3.23;2.80;;;23.50;40.20;;;;;;5050290;28;20214;-72
2023/06/16 05:39:57;;;;;;;3.67;3.33;;;23.50;40.30;;;;;;5040120;28;20475;-73
2023/06/16 05:42:23;;;;;;;3.63;3.43;;;23.50;40.30;;;;;;5042717;28;20233;-72
2023/06/16 05:44:48;;;;;;;3.03;2.73;;;23.50;40.30;;;;;;5035608;28;20312;-72
2023/06/16 05:47:14;;;;;;;3.23;3.03;;;23.50;40.40;;;;;;5028394;28;20254;-72
2023/06/16 05:49:40;;;;;;;3.20;3.00;;;23.50;40.50;;;;;;5041340;28;20226;-72
2023/06/16 05:52:06;;;;;;;2.97;2.77;;;23.50;40.50;;;;;;5036053;28;20736;-72
2023/06/16 05:54:37;;;;;;;3.00;2.90;;;23.50;40.50;;;;;;5039736;28;20267;-72
2023/06/16 05:57:03;;;;;;;2.70;2.60;;;23.50;40.60;;;;;;5042432;28;20508;-72
2023/06/16 05:59:29;;;;;;;3.27;3.07;;;23.50;40.60;;;;;;5041697;28;21492;-73
2023/06/16 06:01:55;;;;;;;3.53;3.33;;;23.50;40.60;;;;;;5042937;28;20237;-72
2023/06/16 06:04:27;;;;;;;3.17;2.97;;;23.50;40.60;;;;;;5044011;28;20222;-72
2023/06/16 06:06:53;;;;;;;3.10;2.90;;;23.50;40.60;;;;;;5043081;28;20472;-72
2023/06/16 06:09:19;;;;;;;3.40;2.63;;;23.50;40.60;;;;;;5036707;28;20431;-72
2023/06/16 06:11:45;;;;;;;4.50;2.63;;;23.50;40.60;;;;;;5044523;28;20254;-72
2023/06/16 06:14:11;;;;;;;3.00;2.90;;;23.50;40.60;;;;;;5041717;28;20249;-72
2023/06/16 06:16:37;;;;;;;2.97;2.77;;;23.50;40.60;;;;;;5043006;28;20483;-72
2023/06/16 06:19:03;;;;;;;2.90;2.70;;;23.50;40.60;;;;;;5034454;28;21946;-73
2023/06/16 06:21:28;;;;;;;3.20;3.00;;;23.50;40.70;;;;;;5039141;28;20474;-72
2023/06/16 06:23:54;;;;;;;3.13;2.93;;;23.50;40.70;;;;;;5038798;28;20226;-75
2023/06/16 06:26:20;;;;;;;2.53;2.40;;;23.50;40.70;;;;;;5040831;28;20225;-75
2023/06/16 06:28:45;;;;;;;3.07;2.87;;;23.50;40.70;;;;;;5042291;28;20630;-76
2023/06/16 06:31:11;;;;;;;3.40;3.20;;;23.50;40.70;;;;;;5041885;28;20239;-74
2023/06/16 06:33:37;;;;;;;3.57;3.37;;;23.50;40.70;;;;;;5041723;28;20714;-74
2023/06/16 06:36:02;;;;;;;3.10;2.90;;;23.50;40.70;;;;;;5036951;28;20661;-74
2023/06/16 06:38:28;;;;;;;2.67;2.57;;;23.50;40.70;;;;;;5041457;28;20236;-75
2023/06/16 06:40:53;;;;;;;3.50;3.30;;;23.50;40.70;;;;;;5039984;28;20326;-75
2023/06/16 06:43:19;;;;;;;3.20;3.03;;;23.50;40.80;;;;;;5040494;28;20772;-75
2023/06/16 06:45:45;;;;;;;3.27;3.07;;;23.50;40.70;;;;;;5032875;28;20588;-74
2023/06/16 06:48:10;;;;;;;3.00;2.80;;;23.50;40.70;;;;;;5040194;28;20233;-75
2023/06/16 06:50:36;;;;;;;2.93;2.73;;;23.50;40.70;;;;;;5040399;28;20699;-75
2023/06/16 06:53:02;;;;;;;4.40;3.00;;;23.50;40.70;;;;;;5038286;28;20226;-75
2023/06/16 06:55:27;;;;;;;2.90;2.57;;;23.50;40.70;;;;;;5043670;28;20245;-74
2023/06/16 06:57:53;;;;;;;2.93;2.80;;;23.50;40.70;;;;;;5042617;28;20229;-74
2023/06/16 07:00:18;;;;;;;2.60;2.50;;;23.50;40.70;;;;;;5044113;28;20214;-75
2023/06/16 07:02:44;;;;;;;2.73;2.53;;;23.50;40.70;;;;;;5042897;28;20225;-74
2023/06/16 07:05:10;;;;;;;3.23;3.03;;;23.50;40.70;;;;;;5045725;28;20210;-74
2023/06/16 07:07:35;;;;;;;2.70;2.60;;;23.50;40.70;;;;;;5041300;28;20352;-74
2023/06/16 07:10:01;;;;;;;2.47;2.37;;;23.50;40.70;;;;;;5043793;28;20682;-74
2023/06/16 07:12:27;;;;;;;2.60;2.50;;;23.50;40.70;;;;;;5038682;28;20297;-74
2023/06/16 07:14:52;;;;;;;2.70;2.50;;;23.50;40.70;;;;;;5040686;28;20233;-75
2023/06/16 07:17:18;;;;;;;2.53;2.43;;;23.50;40.70;;;;;;5041205;28;20628;-75
2023/06/16 07:19:44;;;;;;;3.00;2.80;;;23.60;40.80;;;;;;5040813;28;20283;-75
2023/06/16 07:22:09;;;;;;;2.40;2.20;;;23.50;40.70;;;;;;5039766;28;20364;-74
2023/06/16 07:24:35;;;;;;;2.47;2.37;;;23.60;40.90;;;;;;5036607;28;20321;-74
2023/06/16 07:27:02;;;;;;;2.77;2.43;;;23.50;40.70;;;;;;5038161;28;20242;-74
2023/06/16 07:29:28;;;;;;;2.87;2.67;;;23.60;40.70;;;;;;5039821;28;20242;-74
2023/06/16 07:31:54;;;;;;;3.00;2.70;;;23.50;40.70;;;;;;5045426;28;20969;-75
2023/06/16 07:34:19;;;;;;;2.57;2.47;;;23.60;40.80;;;;;;5041865;28;20473;-74
2023/06/16 07:36:45;;;;;;;2.67;2.57;;;23.60;40.70;;;;;;5042067;28;20219;-74
2023/06/16 07:39:11;;;;;;;3.33;3.13;;;23.50;40.70;;;;;;5038681;28;20304;-75
2023/06/16 07:41:37;;;;;;;3.27;3.07;;;23.60;40.80;;;;;;5032516;28;20221;-75
2023/06/16 07:44:02;;;;;;;2.73;2.63;;;23.60;40.70;;;;;;5038498;28;20359;-74
2023/06/16 07:46:28;;;;;;;3.03;2.83;;;23.60;40.70;;;;;;5042518;28;20621;-74
2023/06/16 07:48:54;;;;;;;2.50;2.30;;;23.60;40.70;;;;;;5040735;28;20936;-75
2023/06/16 07:51:21;;;;;;;3.00;2.80;;;23.60;40.70;;;;;;5044301;28;20287;-74
2023/06/16 07:53:48;;;;;;;3.00;2.90;;;23.50;40.70;;;;;;5028854;28;21141;-74
2023/06/16 07:56:14;;;;;;;3.10;2.90;;;23.60;40.70;;;;;;5042240;28;21330;-74
2023/06/16 07:58:40;;;;;;;2.90;2.80;;;23.60;40.80;;;;;;5037936;28;20562;-74
2023/06/16 08:01:06;;;;;;;2.70;2.60;;;23.60;40.80;;;;;;5047997;28;20816;-74
2023/06/16 08:03:32;;;;;;;2.80;2.40;;;23.60;40.80;;;;;;5043837;28;20921;-74
2023/06/16 08:05:57;;;;;;;2.37;2.27;;;23.60;40.80;;;;;;5042239;28;20458;-75
2023/06/16 08:08:27;;;;;;;2.97;2.80;;;23.60;40.80;;;;;;5036945;28;20276;-72
2023/06/16 08:10:56;;;;;;;3.50;3.30;;;23.60;40.80;;;;;;5038321;28;20333;-75
2023/06/16 08:13:21;;;;;;;3.07;2.87;;;23.60;40.80;;;;;;5041865;28;20960;-76
2023/06/16 08:15:47;;;;;;;3.20;3.00;;;23.60;40.80;;;;;;5040004;28;20468;-76
2023/06/16 08:18:13;;;;;;;2.80;2.70;;;23.60;40.70;;;;;;5038633;28;20293;-76
2023/06/16 08:20:38;;;;;;;2.77;2.67;;;23.60;40.70;;;;;;5033247;28;20225;-76
2023/06/16 08:23:04;;;;;;;2.77;2.57;;;23.60;40.70;;;;;;5040539;28;20596;-76
2023/06/16 08:25:29;;;;;;;2.90;2.80;;;23.60;41.50;;;;;;5037653;28;20249;-76
2023/06/16 08:27:55;;;;;;;2.80;2.70;;;23.60;40.60;;;;;;5041647;28;20224;-76
2023/06/16 08:30:21;;;;;;;5.83;3.70;;;23.60;40.60;;;;;;5036273;28;20229;-76
2023/06/16 08:32:46;;;;;;;3.13;2.90;;;23.60;40.60;;;;;;5034789;28;20233;-76
2023/06/16 08:35:13;;;;;;;3.07;2.80;;;23.60;40.50;;;;;;5046131;28;20257;-76
2023/06/16 08:37:38;;;;;;;3.17;2.97;;;23.60;40.50;;;;;;5039387;28;20242;-76
2023/06/16 08:40:10;;;;;;;2.60;2.50;;;23.60;40.40;;;;;;5039537;28;21171;-76
2023/06/16 08:42:37;;;;;;;2.90;2.70;;;23.60;40.40;;;;;;5028547;28;20233;-76
2023/06/16 08:45:03;;;;;;;2.93;2.77;;;23.60;40.40;;;;;;5041624;28;20505;-76
2023/06/16 08:47:29;;;;;;;2.83;2.63;;;23.60;40.30;;;;;;5036644;28;20530;-76
2023/06/16 08:49:56;;;;;;;3.03;2.83;;;23.60;40.30;;;;;;5039053;28;20519;-76
2023/06/16 08:52:23;;;;;;;2.80;2.60;;;23.60;40.30;;;;;;5029832;28;20312;-77
2023/06/16 08:54:57;;;;;;;2.70;2.60;;;23.60;40.20;;;;;;5033807;28;20985;-77
2023/06/16 08:57:23;;;;;;;3.20;3.00;;;23.70;40.20;;;;;;5044426;28;20510;-76
2023/06/16 08:59:51;;;;;;;3.23;3.03;;;23.70;40.20;;;;;;5038492;28;20965;-76
2023/06/16 09:02:17;;;;;;;2.70;2.50;;;23.60;40.10;;;;;;5042709;28;20544;-77
2023/06/16 09:04:44;;;;;;;2.77;2.67;;;23.70;40.10;;;;;;5040837;28;20542;-76
2023/06/16 09:07:11;;;;;;;3.20;2.80;;;23.60;40.00;;;;;;5041126;28;20225;-76
2023/06/16 09:09:37;;;;;;;2.70;2.50;;;23.70;40.00;;;;;;5040685;28;20544;-76
2023/06/16 09:12:08;;;;;;;2.40;2.30;;;23.60;39.80;;;;;;5040172;28;20982;-76
2023/06/16 09:14:37;;;;;;;2.77;2.67;;;23.70;39.90;;;;;;5039392;28;20474;-76
2023/06/16 09:17:05;;;;;;;3.13;2.93;;;23.70;39.90;;;;;;5034511;28;20474;-76
2023/06/16 09:19:34;;;;;;;2.63;2.53;;;23.70;39.80;;;;;;5035181;28;20477;-76
2023/06/16 09:22:01;;;;;;;3.40;3.20;;;23.70;39.80;;;;;;5044357;28;20474;-76
2023/06/16 09:24:28;;;;;;;2.90;2.70;;;23.70;39.70;;;;;;5034479;28;21211;-76
2023/06/16 09:26:59;;;;;;;3.20;2.60;;;23.70;39.70;;;;;;5040366;28;20498;-76
2023/06/16 09:29:26;;;;;;;2.60;2.50;;;23.70;39.60;;;;;;5043091;28;20435;-76
2023/06/16 09:31:52;;;;;;;2.80;2.60;;;23.70;39.60;;;;;;5040235;28;20669;-76
2023/06/16 09:34:18;;;;;;;3.07;2.87;;;23.70;39.60;;;;;;5037476;28;20485;-76
2023/06/16 09:36:44;;;;;;;2.83;2.63;;;23.70;39.50;;;;;;5038980;28;20553;-76
2023/06/16 09:39:24;;;;;;;3.30;3.10;;;23.70;39.50;;;;;;5032716;28;20584;-76
2023/06/16 09:41:50;;;;;;;2.67;2.57;;;23.70;39.40;;;;;;5032969;28;20466;-76
2023/06/16 09:44:16;;;;;;;2.53;2.43;;;23.70;39.40;;;;;;5031251;28;20891;-76
2023/06/16 09:46:42;;;;;;;2.83;2.73;;;23.70;39.40;;;;;;5036024;28;20530;-76
2023/06/16 09:49:22;;;;;;;2.60;2.40;;;23.70;39.40;;;;;;5037737;28;20274;-76
2023/06/16 09:51:52;;;;;;;2.97;2.80;;;23.70;39.30;;;;;;5036121;28;20605;-76
2023/06/16 09:54:20;;;;;;;2.83;2.73;;;23.70;39.30;;;;;;5035922;28;20437;-76
2023/06/16 09:56:45;;;;;;;2.70;2.60;;;23.70;39.30;;;;;;5031346;28;20982;-76
2023/06/16 09:59:11;;;;;;;2.50;2.37;;;23.70;40.00;;;;;;5036242;28;20471;-76
2023/06/16 10:01:40;;;;;;;2.50;2.40;;;23.70;39.20;;;;;;5035001;28;20226;-76
2023/06/16 10:04:08;;;;;;;2.73;2.53;;;23.70;39.20;;;;;;5038008;28;20486;-76
2023/06/16 10:06:38;;;;;;;2.60;2.50;;;23.70;39.20;;;;;;5033981;28;20466;-76
2023/06/16 10:09:07;;;;;;;2.40;2.30;;;23.70;39.20;;;;;;5032414;28;20456;-75
2023/06/16 10:11:33;;;;;;;3.27;3.07;;;23.70;39.20;;;;;;5038557;28;20862;-76
2023/06/16 10:14:01;;;;;;;2.80;2.70;;;23.70;39.10;;;;;;5039873;28;20479;-76
2023/06/16 10:16:29;;;;;;;2.93;2.70;;;23.70;39.10;;;;;;5032962;28;20458;-73
2023/06/16 10:19:00;;;;;;;2.57;2.47;;;23.70;39.10;;;;;;5035235;28;20463;-76
2023/06/16 10:21:26;;;;;;;2.30;2.20;;;23.70;39.10;;;;;;5042446;28;20795;-76
2023/06/16 10:23:52;;;;;;;2.70;2.50;;;23.80;39.10;;;;;;5039252;28;20470;-76
2023/06/16 10:26:18;;;;;;;2.17;2.07;;;23.70;39.10;;;;;;5046447;28;20953;-76
2023/06/16 10:28:45;;;;;;;2.60;2.50;;;23.80;39.20;;;;;;5040366;28;20592;-76
2023/06/16 10:31:11;;;;;;;2.40;2.30;;;23.80;39.10;;;;;;5044120;28;20478;-76
2023/06/16 10:33:54;;;;;;;2.97;2.77;;;23.70;39.00;;;;;;5040336;28;20436;-76
2023/06/16 10:36:33;;;;;;;3.00;2.80;;;23.80;39.10;;;;;;5035098;28;20814;-76
2023/06/16 10:39:07;;;;;;;2.60;2.50;;;23.70;39.00;;;;;;5055775;28;20439;-76
2023/06/16 10:41:33;;;;;;;3.27;3.07;;;23.80;39.10;;;;;;5036267;28;20869;-76
2023/06/16 10:44:31;;;;;;;2.93;2.73;;;23.80;39.10;;;;;;5031884;28;20463;-73
2023/06/16 10:47:09;;;;;;;2.97;2.70;;;23.80;39.10;;;;;;5002539;28;20233;-73
2023/06/16 10:49:55;;;;;;;2.90;2.70;;;23.80;39.10;;;;;;5031427;28;20512;-73
2023/06/16 10:52:42;;;;;;;2.83;2.63;;;23.70;39.00;;;;;;5040947;28;21004;-73
2023/06/16 10:55:33;;;;;;;2.67;2.47;;;23.70;39.00;;;;;;5040577;28;20830;-73
2023/06/16 10:58:19;;;;;;;2.90;2.80;;;23.70;39.00;;;;;;5030530;28;20507;-73
2023/06/16 11:00:59;;;;;;;2.70;2.60;;;23.80;39.10;;;;;;5039689;28;20475;-73
2023/06/16 11:03:29;;;;;;;2.53;2.43;;;23.70;39.00;;;;;;5041779;28;20961;-73
2023/06/16 11:05:59;;;;;;;3.17;2.97;;;23.70;39.00;;;;;;5043077;28;20471;-73
2023/06/16 11:08:24;;;;;;;2.60;2.50;;;23.70;39.00;;;;;;5043199;28;20462;-73
2023/06/16 11:11:09;;;;;;;2.40;2.30;;;23.80;39.10;;;;;;5045184;28;20427;-72
2023/06/16 11:13:38;;;;;;;2.30;2.20;;;23.70;39.00;;;;;;5045236;28;20245;-73
2023/06/16 11:16:04;;;;;;;2.57;2.47;;;23.80;39.20;;;;;;5046050;28;20447;-73
2023/06/16 11:18:33;;;;;;;2.90;2.80;;;23.80;39.10;;;;;;5040400;28;21013;-73
2023/06/16 11:21:00;;;;;;;2.40;2.30;;;23.80;39.10;;;;;;5045535;28;20455;-73
2023/06/16 11:23:27;;;;;;;2.50;2.40;;;23.80;39.10;;;;;;5042447;28;20547;-73
2023/06/16 11:26:01;;;;;;;2.97;2.77;;;23.80;39.10;;;;;;5044122;28;20442;-73
2023/06/16 11:28:27;;;;;;;2.63;2.47;;;23.80;39.10;;;;;;5042879;28;20523;-73
2023/06/16 11:30:53;;;;;;;2.70;2.60;;;23.80;39.10;;;;;;5042781;28;20439;-73
2023/06/16 11:33:22;;;;;;;2.70;2.50;;;23.80;39.10;;;;;;5037859;28;20222;-73
2023/06/16 11:35:48;;;;;;;3.53;3.33;;;23.80;39.10;;;;;;5042918;28;20442;-72
2023/06/16 11:38:22;;;;;;;2.70;2.60;;;23.80;39.00;;;;;;5043161;28;20458;-73
2023/06/16 11:40:48;;;;;;;3.00;2.77;;;23.80;39.00;;;;;;5047298;28;20230;-72
2023/06/16 11:43:16;;;;;;;3.10;2.90;;;23.80;39.00;;;;;;5036959;28;20461;-73
2023/06/16 11:45:41;;;;;;;2.80;2.60;;;23.80;39.00;;;;;;5044717;28;20666;-73
2023/06/16 11:48:08;;;;;;;2.67;2.50;;;23.80;39.10;;;;;;5038851;28;20462;-73
2023/06/16 11:50:36;;;;;;;3.10;2.90;;;23.80;39.10;;;;;;5041241;28;20697;-72
2023/06/16 11:53:02;;;;;;;2.43;2.33;;;23.80;39.00;;;;;;5039852;28;20464;-73
2023/06/16 11:55:28;;;;;;;3.20;3.00;;;23.80;39.10;;;;;;5042680;28;20903;-73
2023/06/16 11:57:53;;;;;;;2.83;2.73;;;23.80;39.10;;;;;;5043332;28;20455;-73
2023/06/16 12:00:21;;;;;;;3.43;3.23;;;23.80;39.10;;;;;;5041476;28;20481;-73
2023/06/16 12:02:48;;;;;;;2.67;2.50;;;23.80;39.10;;;;;;5039243;28;20226;-73
2023/06/16 12:05:22;;;;;;;2.60;2.50;;;23.70;39.00;;;;;;5042507;28;20485;-73
2023/06/16 12:07:48;;;;;;;2.70;2.60;;;23.70;38.90;;;;;;5055116;28;20437;-73
2023/06/16 12:10:15;;;;;;;2.80;2.67;;;23.70;38.90;;;;;;5045367;28;20482;-73
2023/06/16 12:12:45;;;;;;;2.73;2.63;;;23.80;39.00;;;;;;5043854;28;20646;-73
2023/06/16 12:15:18;;;;;;;3.00;2.80;;;23.80;39.00;;;;;;5039457;28;20460;-73
2023/06/16 12:17:44;;;;;;;2.87;2.53;;;23.80;39.00;;;;;;5039081;28;20468;-73
2023/06/16 12:20:12;;;;;;;3.10;2.90;;;23.80;39.00;;;;;;5033104;28;20509;-73
2023/06/16 12:22:38;;;;;;;2.90;2.80;;;23.80;39.00;;;;;;5041805;28;20463;-73
2023/06/16 12:25:26;;;;;;;3.10;2.90;;;23.80;39.00;;;;;;5033781;28;20475;-75
2023/06/16 12:27:57;;;;;;;3.37;3.17;;;23.80;39.00;;;;;;5039832;28;20454;-73
2023/06/16 12:30:32;;;;;;;3.10;2.90;;;23.80;39.00;;;;;;5042861;28;20455;-75
2023/06/16 12:33:06;;;;;;;2.90;2.73;;;23.80;39.10;;;;;;5039823;28;20435;-73
2023/06/16 12:35:31;;;;;;;2.63;2.53;;;23.80;39.00;;;;;;5035864;28;20442;-73
2023/06/16 12:37:58;;;;;;;3.13;2.93;;;23.80;39.00;;;;;;5042379;28;20427;-73
2023/06/16 12:40:33;;;;;;;3.00;2.80;;;23.80;39.10;;;;;;5044581;28;20228;-73
2023/06/16 12:43:24;;;;;;;3.43;3.23;;;23.80;39.00;;;;;;5041726;28;20436;-73
2023/06/16 12:45:50;;;;;;;2.80;2.67;;;23.80;39.00;;;;;;5036324;28;20431;-73
2023/06/16 12:48:16;;;;;;;3.17;2.97;;;23.80;39.10;;;;;;5040137;28;20452;-73
2023/06/16 12:50:42;;;;;;;2.90;2.80;;;23.80;39.00;;;;;;5039783;28;20979;-73